sensor_id;sensor_type;location;lat;lon;timestamp;pressure;altitude;pressure_sealevel;temperature;humidity
30182;BME280;16990;49.056;9.240;2022-11-14T00:00:03;98774.72;;;3.10;100.00
30182;BME280;16990;49.056;9.240;2022-11-14T00:02:30;98778.00;;;3.12;100.00
30182;BME280;16990;49.056;9.240;2022-11-14T00:04:57;98791.38;;;3.10;100.00
30182;BME280;16990;49.056;9.240;2022-11-14T00:07:24;98775.63;;;3.17;100.00
30182;BME280;16990;49.056;9.240;2022-11-14T00:09:50;98777.63;;;3.15;100.00
30182;BME280;16990;49.056;9.240;2022-11-14T00:12:18;98780.91;;;3.17;100.00
30182;BME280;16990;49.056;9.240;2022-11-14T00:14:45;98779.06;;;3.17;100.00
30182;BME280;16990;49.056;9.240;2022-11-14T00:17:12;98788.00;;;3.02;100.00
30182;BME280;16990;49.056;9.240;2022-11-14T00:19:38;98782.94;;;2.85;100.00
30182;BME280;16990;49.056;9.240;2022-11-14T00:22:05;98782.94;;;2.85;100.00
30182;BME280;16990;49.056;9.240;2022-11-14T00:24:31;98779.03;;;2.81;100.00
30182;BME280;16990;49.056;9.240;2022-11-14T00:26:58;98780.81;;;2.66;100.00
30182;BME280;16990;49.056;9.240;2022-11-14T00:29:26;98784.97;;;2.68;100.00
30182;BME280;16990;49.056;9.240;2022-11-14T00:31:53;98777.38;;;2.80;100.00
30182;BME280;16990;49.056;9.240;2022-11-14T00:34:20;98775.84;;;2.71;100.00
30182;BME280;16990;49.056;9.240;2022-11-14T00:36:46;98774.13;;;2.78;100.00
30182;BME280;16990;49.056;9.240;2022-11-14T00:39:13;98771.47;;;2.78;100.00
30182;BME280;16990;49.056;9.240;2022-11-14T00:41:41;98772.72;;;2.82;100.00
30182;BME280;16990;49.056;9.240;2022-11-14T00:44:07;98775.19;;;2.84;100.00
30182;BME280;16990;49.056;9.240;2022-11-14T00:46:37;98773.91;;;2.94;100.00
30182;BME280;16990;49.056;9.240;2022-11-14T00:49:04;98767.72;;;3.02;100.00
30182;BME280;16990;49.056;9.240;2022-11-14T00:51:30;98770.50;;;3.52;100.00
30182;BME280;16990;49.056;9.240;2022-11-14T00:53:57;98774.59;;;3.54;100.00
30182;BME280;16990;49.056;9.240;2022-11-14T00:56:23;98763.13;;;3.26;100.00
30182;BME280;16990;49.056;9.240;2022-11-14T00:58:50;98766.94;;;3.23;100.00
30182;BME280;16990;49.056;9.240;2022-11-14T01:01:17;98760.38;;;3.34;100.00
30182;BME280;16990;49.056;9.240;2022-11-14T01:03:47;98757.47;;;3.29;100.00
30182;BME280;16990;49.056;9.240;2022-11-14T01:06:15;98752.19;;;3.29;100.00
30182;BME280;16990;49.056;9.240;2022-11-14T01:08:42;98751.00;;;3.31;100.00
30182;BME280;16990;49.056;9.240;2022-11-14T01:11:10;98752.28;;;3.35;100.00
30182;BME280;16990;49.056;9.240;2022-11-14T01:13:37;98745.22;;;3.43;100.00
30182;BME280;16990;49.056;9.240;2022-11-14T01:16:05;98747.50;;;3.46;100.00
30182;BME280;16990;49.056;9.240;2022-11-14T01:18:32;98734.69;;;3.49;100.00
30182;BME280;16990;49.056;9.240;2022-11-14T01:21:03;98749.13;;;3.47;100.00
30182;BME280;16990;49.056;9.240;2022-11-14T01:23:31;98752.22;;;3.50;100.00
30182;BME280;16990;49.056;9.240;2022-11-14T01:26:00;98745.84;;;3.45;100.00
30182;BME280;16990;49.056;9.240;2022-11-14T01:28:27;98745.84;;;3.45;100.00
30182;BME280;16990;49.056;9.240;2022-11-14T01:30:54;98734.91;;;3.48;100.00
30182;BME280;16990;49.056;9.240;2022-11-14T01:33:20;98735.09;;;3.46;100.00
30182;BME280;16990;49.056;9.240;2022-11-14T01:35:48;98736.91;;;3.46;100.00
30182;BME280;16990;49.056;9.240;2022-11-14T01:38:17;98725.84;;;3.35;100.00
30182;BME280;16990;49.056;9.240;2022-11-14T01:40:44;98735.66;;;3.41;100.00
30182;BME280;16990;49.056;9.240;2022-11-14T01:43:22;98734.44;;;3.44;100.00
30182;BME280;16990;49.056;9.240;2022-11-14T01:45:52;98738.50;;;3.40;100.00
30182;BME280;16990;49.056;9.240;2022-11-14T01:48:23;98728.53;;;3.42;100.00
30182;BME280;16990;49.056;9.240;2022-11-14T01:50:54;98718.25;;;3.47;100.00
30182;BME280;16990;49.056;9.240;2022-11-14T01:53:24;98724.34;;;3.48;100.00
30182;BME280;16990;49.056;9.240;2022-11-14T01:55:53;98701.19;;;3.50;100.00
30182;BME280;16990;49.056;9.240;2022-11-14T01:58:22;98703.19;;;3.48;100.00
30182;BME280;16990;49.056;9.240;2022-11-14T02:00:49;98704.44;;;3.52;100.00
30182;BME280;16990;49.056;9.240;2022-11-14T02:03:16;98701.53;;;3.47;100.00
30182;BME280;16990;49.056;9.240;2022-11-14T02:05:44;98711.28;;;3.46;100.00
30182;BME280;16990;49.056;9.240;2022-11-14T02:08:14;98702.38;;;3.47;100.00
30182;BME280;16990;49.056;9.240;2022-11-14T02:10:42;98701.53;;;3.47;100.00
30182;BME280;16990;49.056;9.240;2022-11-14T02:13:09;98707.47;;;3.49;100.00
30182;BME280;16990;49.056;9.240;2022-11-14T02:15:36;98699.13;;;3.52;100.00
30182;BME280;16990;49.056;9.240;2022-11-14T02:18:03;98687.19;;;3.56;100.00
30182;BME280;16990;49.056;9.240;2022-11-14T02:20:35;98685.00;;;3.59;100.00
30182;BME280;16990;49.056;9.240;2022-11-14T02:23:02;98692.28;;;3.57;100.00
30182;BME280;16990;49.056;9.240;2022-11-14T02:25:29;98669.06;;;3.53;100.00
30182;BME280;16990;49.056;9.240;2022-11-14T02:27:57;98682.09;;;3.54;100.00
30182;BME280;16990;49.056;9.240;2022-11-14T02:30:24;98672.34;;;3.55;100.00
30182;BME280;16990;49.056;9.240;2022-11-14T02:32:50;98674.38;;;3.53;100.00
30182;BME280;16990;49.056;9.240;2022-11-14T02:35:17;98665.41;;;3.54;100.00
30182;BME280;16990;49.056;9.240;2022-11-14T02:37:45;98678.44;;;3.55;100.00
30182;BME280;16990;49.056;9.240;2022-11-14T02:40:12;98667.09;;;3.61;100.00
30182;BME280;16990;49.056;9.240;2022-11-14T02:42:38;98677.09;;;3.66;100.00
30182;BME280;16990;49.056;9.240;2022-11-14T02:45:06;98670.00;;;3.67;100.00
30182;BME280;16990;49.056;9.240;2022-11-14T02:47:33;98665.94;;;3.64;100.00
30182;BME280;16990;49.056;9.240;2022-11-14T02:50:00;98663.88;;;3.66;100.00
30182;BME280;16990;49.056;9.240;2022-11-14T02:52:26;98663.53;;;3.69;100.00
30182;BME280;16990;49.056;9.240;2022-11-14T02:54:55;98665.59;;;3.74;100.00
30182;BME280;16990;49.056;9.240;2022-11-14T02:57:21;98667.47;;;3.80;100.00
30182;BME280;16990;49.056;9.240;2022-11-14T02:59:48;98667.28;;;3.81;100.00
30182;BME280;16990;49.056;9.240;2022-11-14T03:02:14;98672.81;;;3.87;100.00
30182;BME280;16990;49.056;9.240;2022-11-14T03:04:41;98679.59;;;3.96;100.00
30182;BME280;16990;49.056;9.240;2022-11-14T03:07:09;98682.88;;;4.04;100.00
30182;BME280;16990;49.056;9.240;2022-11-14T03:09:35;98692.44;;;4.27;100.00
30182;BME280;16990;49.056;9.240;2022-11-14T03:12:03;98685.47;;;4.19;100.00
30182;BME280;16990;49.056;9.240;2022-11-14T03:14:30;98688.56;;;4.30;100.00
30182;BME280;16990;49.056;9.240;2022-11-14T03:16:57;98690.47;;;4.36;100.00
30182;BME280;16990;49.056;9.240;2022-11-14T03:19:24;98681.94;;;4.47;100.00
30182;BME280;16990;49.056;9.240;2022-11-14T03:21:50;98673.00;;;4.55;100.00
30182;BME280;16990;49.056;9.240;2022-11-14T03:24:17;98682.16;;;4.52;100.00
30182;BME280;16990;49.056;9.240;2022-11-14T03:26:44;98662.59;;;4.46;100.00
30182;BME280;16990;49.056;9.240;2022-11-14T03:29:12;98664.22;;;4.47;100.00
30182;BME280;16990;49.056;9.240;2022-11-14T03:31:38;98659.13;;;4.46;100.00
30182;BME280;16990;49.056;9.240;2022-11-14T03:34:05;98647.06;;;4.37;100.00
30182;BME280;16990;49.056;9.240;2022-11-14T03:36:33;98646.25;;;4.36;100.00
30182;BME280;16990;49.056;9.240;2022-11-14T03:39:00;98657.34;;;4.18;100.00
30182;BME280;16990;49.056;9.240;2022-11-14T03:41:26;98644.91;;;4.12;100.00
30182;BME280;16990;49.056;9.240;2022-11-14T03:43:53;98642.63;;;4.09;100.00
30182;BME280;16990;49.056;9.240;2022-11-14T03:46:21;98633.84;;;4.02;100.00
30182;BME280;16990;49.056;9.240;2022-11-14T03:48:48;98639.69;;;3.91;100.00
30182;BME280;16990;49.056;9.240;2022-11-14T03:51:15;98619.69;;;3.81;100.00
30182;BME280;16990;49.056;9.240;2022-11-14T03:53:41;98623.06;;;3.75;100.00
30182;BME280;16990;49.056;9.240;2022-11-14T03:56:08;98621.53;;;3.88;100.00
30182;BME280;16990;49.056;9.240;2022-11-14T03:58:35;98616.06;;;3.89;100.00
30182;BME280;16990;49.056;9.240;2022-11-14T04:01:01;98622.56;;;3.87;100.00
30182;BME280;16990;49.056;9.240;2022-11-14T04:03:30;98617.72;;;3.62;100.00
30182;BME280;16990;49.056;9.240;2022-11-14T04:05:56;98620.06;;;3.50;100.00
30182;BME280;16990;49.056;9.240;2022-11-14T04:08:23;98629.19;;;3.48;100.00
30182;BME280;16990;49.056;9.240;2022-11-14T04:10:50;98632.81;;;3.47;100.00
30182;BME280;16990;49.056;9.240;2022-11-14T04:13:16;98642.16;;;3.43;100.00
30182;BME280;16990;49.056;9.240;2022-11-14T04:15:43;98642.75;;;3.45;100.00
30182;BME280;16990;49.056;9.240;2022-11-14T04:18:10;98648.88;;;3.45;100.00
30182;BME280;16990;49.056;9.240;2022-11-14T04:20:38;98658.75;;;3.36;100.00
30182;BME280;16990;49.056;9.240;2022-11-14T04:23:05;98652.72;;;3.43;100.00
30182;BME280;16990;49.056;9.240;2022-11-14T04:25:31;98647.13;;;3.52;100.00
30182;BME280;16990;49.056;9.240;2022-11-14T04:27:58;98646.16;;;3.60;100.00
30182;BME280;16990;49.056;9.240;2022-11-14T04:30:25;98639.38;;;3.51;100.00
30182;BME280;16990;49.056;9.240;2022-11-14T04:32:51;98639.53;;;3.49;100.00
30182;BME280;16990;49.056;9.240;2022-11-14T04:35:18;98635.59;;;3.38;100.00
30182;BME280;16990;49.056;9.240;2022-11-14T04:37:46;98632.38;;;3.43;100.00
30182;BME280;16990;49.056;9.240;2022-11-14T04:40:13;98636.16;;;3.55;100.00
30182;BME280;16990;49.056;9.240;2022-11-14T04:42:40;98643.28;;;3.55;100.00
30182;BME280;16990;49.056;9.240;2022-11-14T04:45:08;98641.09;;;3.65;100.00
30182;BME280;16990;49.056;9.240;2022-11-14T04:47:35;98639.13;;;3.46;100.00
30182;BME280;16990;49.056;9.240;2022-11-14T04:50:02;98639.28;;;3.44;100.00
30182;BME280;16990;49.056;9.240;2022-11-14T04:52:29;98643.53;;;3.38;100.00
30182;BME280;16990;49.056;9.240;2022-11-14T04:54:57;98624.56;;;3.35;100.00
30182;BME280;16990;49.056;9.240;2022-11-14T04:57:24;98620.50;;;3.32;100.00
30182;BME280;16990;49.056;9.240;2022-11-14T04:59:51;98609.91;;;3.32;100.00
30182;BME280;16990;49.056;9.240;2022-11-14T05:02:17;98600.94;;;3.27;100.00
30182;BME280;16990;49.056;9.240;2022-11-14T05:04:44;98608.06;;;3.26;100.00
30182;BME280;16990;49.056;9.240;2022-11-14T05:07:13;98592.38;;;3.25;100.00
30182;BME280;16990;49.056;9.240;2022-11-14T05:09:39;98596.22;;;3.22;100.00
30182;BME280;16990;49.056;9.240;2022-11-14T05:12:07;98588.47;;;3.20;100.00
30182;BME280;16990;49.056;9.240;2022-11-14T05:14:34;98603.72;;;3.18;100.00
30182;BME280;16990;49.056;9.240;2022-11-14T05:17:01;98594.78;;;3.19;100.00
30182;BME280;16990;49.056;9.240;2022-11-14T05:19:27;98601.66;;;3.14;100.00
30182;BME280;16990;49.056;9.240;2022-11-14T05:21:54;98582.28;;;3.07;100.00
30182;BME280;16990;49.056;9.240;2022-11-14T05:24:21;98601.00;;;3.12;100.00
30182;BME280;16990;49.056;9.240;2022-11-14T05:26:48;98608.00;;;3.19;100.00
30182;BME280;16990;49.056;9.240;2022-11-14T05:29:16;98600.25;;;3.18;100.00
30182;BME280;16990;49.056;9.240;2022-11-14T05:31:43;98586.41;;;3.16;100.00
30182;BME280;16990;49.056;9.240;2022-11-14T05:34:10;98578.84;;;3.13;100.00
30182;BME280;16990;49.056;9.240;2022-11-14T05:36:36;98577.03;;;3.13;100.00
30182;BME280;16990;49.056;9.240;2022-11-14T05:39:03;98581.50;;;3.13;100.00
30182;BME280;16990;49.056;9.240;2022-11-14T05:41:30;98577.59;;;3.09;100.00
30182;BME280;16990;49.056;9.240;2022-11-14T05:43:56;98574.59;;;3.12;100.00
30182;BME280;16990;49.056;9.240;2022-11-14T05:46:24;98581.50;;;3.13;100.00
30182;BME280;16990;49.056;9.240;2022-11-14T05:48:51;98577.47;;;3.17;100.00
30182;BME280;16990;49.056;9.240;2022-11-14T05:51:18;98579.13;;;3.46;100.00
30182;BME280;16990;49.056;9.240;2022-11-14T05:53:44;98586.78;;;3.34;100.00
30182;BME280;16990;49.056;9.240;2022-11-14T05:56:12;98609.69;;;3.27;100.00
30182;BME280;16990;49.056;9.240;2022-11-14T05:58:39;98587.47;;;3.22;100.00
30182;BME280;16990;49.056;9.240;2022-11-14T06:01:13;98582.63;;;3.25;100.00
30182;BME280;16990;49.056;9.240;2022-11-14T06:03:43;98593.97;;;3.19;100.00
30182;BME280;16990;49.056;9.240;2022-11-14T06:06:13;98591.69;;;3.16;100.00
30182;BME280;16990;49.056;9.240;2022-11-14T06:08:40;98590.19;;;3.07;100.00
30182;BME280;16990;49.056;9.240;2022-11-14T06:11:09;98590.56;;;3.04;100.00
30182;BME280;16990;49.056;9.240;2022-11-14T06:13:36;98604.84;;;3.09;100.00
30182;BME280;16990;49.056;9.240;2022-11-14T06:16:05;98597.75;;;3.10;100.00
30182;BME280;16990;49.056;9.240;2022-11-14T06:18:33;98589.09;;;3.23;100.00
30182;BME280;16990;49.056;9.240;2022-11-14T06:21:03;98590.69;;;3.17;100.00
30182;BME280;16990;49.056;9.240;2022-11-14T06:23:30;98585.03;;;3.20;100.00
30182;BME280;16990;49.056;9.240;2022-11-14T06:25:57;98590.19;;;3.28;100.00
30182;BME280;16990;49.056;9.240;2022-11-14T06:28:25;98597.84;;;3.23;100.00
30182;BME280;16990;49.056;9.240;2022-11-14T06:30:55;98602.53;;;3.21;100.00
30182;BME280;16990;49.056;9.240;2022-11-14T06:33:22;98602.13;;;3.24;100.00
30182;BME280;16990;49.056;9.240;2022-11-14T06:35:49;98592.78;;;3.22;100.00
30182;BME280;16990;49.056;9.240;2022-11-14T06:38:17;98589.91;;;3.23;100.00
30182;BME280;16990;49.056;9.240;2022-11-14T06:40:43;98582.31;;;3.13;100.00
30182;BME280;16990;49.056;9.240;2022-11-14T06:43:10;98584.34;;;3.11;100.00
30182;BME280;16990;49.056;9.240;2022-11-14T06:45:37;98590.44;;;3.12;100.00
30182;BME280;16990;49.056;9.240;2022-11-14T06:48:04;98596.72;;;3.11;100.00
30182;BME280;16990;49.056;9.240;2022-11-14T06:50:31;98601.19;;;3.10;100.00
30182;BME280;16990;49.056;9.240;2022-11-14T06:52:58;98591.44;;;3.11;100.00
30182;BME280;16990;49.056;9.240;2022-11-14T06:55:26;98594.72;;;3.13;100.00
30182;BME280;16990;49.056;9.240;2022-11-14T06:57:53;98600.25;;;3.18;100.00
30182;BME280;16990;49.056;9.240;2022-11-14T07:00:20;98610.25;;;3.23;100.00
30182;BME280;16990;49.056;9.240;2022-11-14T07:02:47;98604.41;;;3.27;100.00
30182;BME280;16990;49.056;9.240;2022-11-14T07:05:14;98616.66;;;3.35;100.00
30182;BME280;16990;49.056;9.240;2022-11-14T07:07:41;98618.88;;;3.31;100.00
30182;BME280;16990;49.056;9.240;2022-11-14T07:10:08;98611.38;;;3.35;100.00
30182;BME280;16990;49.056;9.240;2022-11-14T07:12:36;98611.25;;;3.43;100.00
30182;BME280;16990;49.056;9.240;2022-11-14T07:15:04;98608.41;;;3.45;100.00
30182;BME280;16990;49.056;9.240;2022-11-14T07:17:33;98600.75;;;3.50;100.00
30182;BME280;16990;49.056;9.240;2022-11-14T07:19:59;98609.91;;;3.54;100.00
30182;BME280;16990;49.056;9.240;2022-11-14T07:22:26;98606.50;;;3.60;100.00
30182;BME280;16990;49.056;9.240;2022-11-14T07:24:53;98615.47;;;3.66;100.00
30182;BME280;16990;49.056;9.240;2022-11-14T07:27:19;98615.94;;;3.69;100.00
30182;BME280;16990;49.056;9.240;2022-11-14T07:29:47;98623.88;;;3.69;100.00
30182;BME280;16990;49.056;9.240;2022-11-14T07:32:14;98624.50;;;3.78;100.00
30182;BME280;16990;49.056;9.240;2022-11-14T07:34:41;98626.94;;;3.73;100.00
30182;BME280;16990;49.056;9.240;2022-11-14T07:37:07;98618.03;;;3.80;100.00
30182;BME280;16990;49.056;9.240;2022-11-14T07:39:34;98626.78;;;3.81;100.00
30182;BME280;16990;49.056;9.240;2022-11-14T07:42:01;98617.66;;;3.83;100.00
30182;BME280;16990;49.056;9.240;2022-11-14T07:44:27;98619.22;;;3.78;100.00
30182;BME280;16990;49.056;9.240;2022-11-14T07:46:56;98626.34;;;3.77;100.00
30182;BME280;16990;49.056;9.240;2022-11-14T07:49:22;98626.97;;;3.79;100.00
30182;BME280;16990;49.056;9.240;2022-11-14T07:51:49;98640.03;;;3.81;100.00
30182;BME280;16990;49.056;9.240;2022-11-14T07:54:16;98630.03;;;3.76;100.00
30182;BME280;16990;49.056;9.240;2022-11-14T07:56:43;98640.78;;;3.75;100.00
30182;BME280;16990;49.056;9.240;2022-11-14T07:59:10;98651.81;;;3.78;100.00
30182;BME280;16990;49.056;9.240;2022-11-14T08:01:37;98650.97;;;3.78;100.00
30182;BME280;16990;49.056;9.240;2022-11-14T08:04:05;98647.50;;;3.77;100.00
30182;BME280;16990;49.056;9.240;2022-11-14T08:06:32;98662.38;;;3.78;100.00
30182;BME280;16990;49.056;9.240;2022-11-14T08:08:58;98654.44;;;3.78;100.00
30182;BME280;16990;49.056;9.240;2022-11-14T08:11:25;98667.28;;;3.81;100.00
30182;BME280;16990;49.056;9.240;2022-11-14T08:14:06;98660.34;;;3.80;100.00
30182;BME280;16990;49.056;9.240;2022-11-14T08:16:33;98656.69;;;3.81;100.00
30182;BME280;16990;49.056;9.240;2022-11-14T08:19:00;98645.09;;;3.82;100.00
30182;BME280;16990;49.056;9.240;2022-11-14T08:21:28;98647.94;;;3.81;100.00
30182;BME280;16990;49.056;9.240;2022-11-14T08:23:55;98657.91;;;3.79;100.00
30182;BME280;16990;49.056;9.240;2022-11-14T08:26:22;98639.19;;;3.80;100.00
30182;BME280;16990;49.056;9.240;2022-11-14T08:28:51;98644.09;;;3.83;100.00
30182;BME280;16990;49.056;9.240;2022-11-14T08:31:18;98651.06;;;3.91;100.00
30182;BME280;16990;49.056;9.240;2022-11-14T08:33:45;98654.13;;;3.95;100.00
30182;BME280;16990;49.056;9.240;2022-11-14T08:36:14;98659.28;;;4.03;100.00
30182;BME280;16990;49.056;9.240;2022-11-14T08:38:42;98658.50;;;4.09;100.00
30182;BME280;16990;49.056;9.240;2022-11-14T08:41:09;98655.28;;;4.14;100.00
30182;BME280;16990;49.056;9.240;2022-11-14T08:43:36;98665.91;;;4.20;100.00
30182;BME280;16990;49.056;9.240;2022-11-14T08:46:04;98661.66;;;4.19;100.00
30182;BME280;16990;49.056;9.240;2022-11-14T08:48:31;98657.22;;;4.26;100.00
30182;BME280;16990;49.056;9.240;2022-11-14T08:51:01;98652.16;;;4.32;100.00
30182;BME280;16990;49.056;9.240;2022-11-14T08:53:28;98649.31;;;4.40;100.00
30182;BME280;16990;49.056;9.240;2022-11-14T08:55:56;98654.47;;;4.48;100.00
30182;BME280;16990;49.056;9.240;2022-11-14T08:58:26;98650.63;;;4.57;100.00
30182;BME280;16990;49.056;9.240;2022-11-14T09:00:53;98651.88;;;4.61;100.00
30182;BME280;16990;49.056;9.240;2022-11-14T09:03:20;98649.25;;;4.68;100.00
30182;BME280;16990;49.056;9.240;2022-11-14T09:05:50;98658.44;;;4.79;100.00
30182;BME280;16990;49.056;9.240;2022-11-14T09:08:16;98662.63;;;5.01;100.00
30182;BME280;16990;49.056;9.240;2022-11-14T09:10:43;98648.63;;;5.27;100.00
30182;BME280;16990;49.056;9.240;2022-11-14T09:13:12;98643.94;;;5.49;100.00
30182;BME280;16990;49.056;9.240;2022-11-14T09:15:38;98656.00;;;5.65;100.00
30182;BME280;16990;49.056;9.240;2022-11-14T09:18:05;98648.84;;;5.79;100.00
30182;BME280;16990;49.056;9.240;2022-11-14T09:20:32;98655.56;;;5.88;100.00
30182;BME280;16990;49.056;9.240;2022-11-14T09:22:59;98648.88;;;5.99;100.00
30182;BME280;16990;49.056;9.240;2022-11-14T09:25:26;98638.63;;;6.09;100.00
30182;BME280;16990;49.056;9.240;2022-11-14T09:27:54;98642.28;;;6.15;100.00
30182;BME280;16990;49.056;9.240;2022-11-14T09:30:22;98650.25;;;6.15;100.00
30182;BME280;16990;49.056;9.240;2022-11-14T09:32:49;98652.53;;;6.18;100.00
30182;BME280;16990;49.056;9.240;2022-11-14T09:35:16;98664.75;;;6.32;100.00
30182;BME280;16990;49.056;9.240;2022-11-14T09:37:42;98656.97;;;6.31;100.00
30182;BME280;16990;49.056;9.240;2022-11-14T09:40:11;98658.41;;;6.33;100.00
30182;BME280;16990;49.056;9.240;2022-11-14T09:42:54;98664.31;;;6.35;100.00
30182;BME280;16990;49.056;9.240;2022-11-14T09:45:26;98665.53;;;6.39;100.00
30182;BME280;16990;49.056;9.240;2022-11-14T09:47:57;98656.91;;;6.51;100.00
30182;BME280;16990;49.056;9.240;2022-11-14T09:50:28;98664.50;;;6.54;100.00
30182;BME280;16990;49.056;9.240;2022-11-14T09:52:59;98663.25;;;6.56;100.00
30182;BME280;16990;49.056;9.240;2022-11-14T09:55:30;98652.22;;;6.53;100.00
30182;BME280;16990;49.056;9.240;2022-11-14T09:57:57;98654.03;;;6.59;100.00
30182;BME280;16990;49.056;9.240;2022-11-14T10:00:28;98647.94;;;6.52;100.00
30182;BME280;16990;49.056;9.240;2022-11-14T10:03:07;98651.22;;;6.54;100.00
30182;BME280;16990;49.056;9.240;2022-11-14T10:05:49;98645.06;;;6.53;100.00
30182;BME280;16990;49.056;9.240;2022-11-14T10:08:36;98641.94;;;6.63;100.00
30182;BME280;16990;49.056;9.240;2022-11-14T10:11:12;98632.78;;;6.59;100.00
30182;BME280;16990;49.056;9.240;2022-11-14T10:13:52;98608.63;;;6.67;100.00
30182;BME280;16990;49.056;9.240;2022-11-14T10:16:33;98613.28;;;6.78;100.00
30182;BME280;16990;49.056;9.240;2022-11-14T10:19:17;98607.22;;;7.03;100.00
30182;BME280;16990;49.056;9.240;2022-11-14T10:21:57;98613.16;;;7.05;100.00
30182;BME280;16990;49.056;9.240;2022-11-14T10:24:45;98599.19;;;7.16;100.00
30182;BME280;16990;49.056;9.240;2022-11-14T10:27:17;98586.84;;;7.22;100.00
30182;BME280;16990;49.056;9.240;2022-11-14T10:30:03;98592.63;;;7.44;100.00
30182;BME280;16990;49.056;9.240;2022-11-14T10:32:52;98594.44;;;7.50;100.00
30182;BME280;16990;49.056;9.240;2022-11-14T10:35:25;98592.38;;;7.71;100.00
30182;BME280;16990;49.056;9.240;2022-11-14T10:38:00;98589.47;;;7.79;100.00
30182;BME280;16990;49.056;9.240;2022-11-14T10:40:35;98594.97;;;8.02;100.00
30182;BME280;16990;49.056;9.240;2022-11-14T10:43:10;98588.59;;;8.03;100.00
30182;BME280;16990;49.056;9.240;2022-11-14T10:45:46;98595.13;;;8.07;100.00
30182;BME280;16990;49.056;9.240;2022-11-14T10:48:24;98582.78;;;8.13;100.00
30182;BME280;16990;49.056;9.240;2022-11-14T10:50:57;98598.09;;;8.18;100.00
30182;BME280;16990;49.056;9.240;2022-11-14T10:53:33;98593.97;;;8.22;100.00
30182;BME280;16990;49.056;9.240;2022-11-14T10:56:03;98606.09;;;8.36;100.00
30182;BME280;16990;49.056;9.240;2022-11-14T10:58:30;98601.81;;;8.54;100.00
30182;BME280;16990;49.056;9.240;2022-11-14T11:01:33;98595.22;;;8.56;100.00
30182;BME280;16990;49.056;9.240;2022-11-14T11:04:20;98599.81;;;8.67;100.00
30182;BME280;16990;49.056;9.240;2022-11-14T11:06:47;98597.41;;;8.78;100.00
30182;BME280;16990;49.056;9.240;2022-11-14T11:09:16;98597.41;;;8.78;100.00
30182;BME280;16990;49.056;9.240;2022-11-14T11:12:03;98594.91;;;8.94;100.00
30182;BME280;16990;49.056;9.240;2022-11-14T11:14:30;98587.97;;;8.93;100.00
30182;BME280;16990;49.056;9.240;2022-11-14T11:17:08;98587.72;;;8.95;100.00
30182;BME280;16990;49.056;9.240;2022-11-14T11:19:42;98589.72;;;9.00;100.00
30182;BME280;16990;49.056;9.240;2022-11-14T11:22:24;98592.25;;;8.94;100.00
30182;BME280;16990;49.056;9.240;2022-11-14T11:24:51;98595.34;;;9.10;100.00
30182;BME280;16990;49.056;9.240;2022-11-14T11:27:20;98585.56;;;9.04;100.00
30182;BME280;16990;49.056;9.240;2022-11-14T11:30:01;98578.78;;;9.20;100.00
30182;BME280;16990;49.056;9.240;2022-11-14T11:32:28;98585.59;;;9.15;100.00
30182;BME280;16990;49.056;9.240;2022-11-14T11:34:59;98588.91;;;9.29;100.00
30182;BME280;16990;49.056;9.240;2022-11-14T11:37:29;98582.41;;;9.37;100.00
30182;BME280;16990;49.056;9.240;2022-11-14T11:40:01;98574.75;;;9.41;100.00
30182;BME280;16990;49.056;9.240;2022-11-14T11:42:33;98568.28;;;9.60;100.00
30182;BME280;16990;49.056;9.240;2022-11-14T11:45:05;98567.34;;;9.66;100.00
30182;BME280;16990;49.056;9.240;2022-11-14T11:47:38;98560.94;;;9.91;100.00
30182;BME280;16990;49.056;9.240;2022-11-14T11:52:44;98558.63;;;10.18;100.00
30182;BME280;16990;49.056;9.240;2022-11-14T11:55:16;98557.56;;;10.31;100.00
30182;BME280;16990;49.056;9.240;2022-11-14T11:57:46;98550.94;;;10.33;100.00
30182;BME280;16990;49.056;9.240;2022-11-14T12:00:15;98551.75;;;10.34;100.00
30182;BME280;16990;49.056;9.240;2022-11-14T12:02:45;98552.22;;;10.31;100.00
30182;BME280;16990;49.056;9.240;2022-11-14T12:05:16;98556.50;;;10.32;100.00
30182;BME280;16990;49.056;9.240;2022-11-14T12:07:47;98556.63;;;10.25;100.00
30182;BME280;16990;49.056;9.240;2022-11-14T12:10:20;98556.38;;;10.27;100.00
30182;BME280;16990;49.056;9.240;2022-11-14T12:15:50;98561.72;;;10.27;100.00
30182;BME280;16990;49.056;9.240;2022-11-14T12:21:37;98549.91;;;10.22;100.00
30182;BME280;16990;49.056;9.240;2022-11-14T12:27:12;98550.69;;;10.23;100.00
30182;BME280;16990;49.056;9.240;2022-11-14T12:29:52;98548.47;;;10.32;100.00
30182;BME280;16990;49.056;9.240;2022-11-14T12:32:28;98542.69;;;10.35;100.00
30182;BME280;16990;49.056;9.240;2022-11-14T12:34:56;98541.97;;;10.28;100.00
30182;BME280;16990;49.056;9.240;2022-11-14T12:37:30;98537.34;;;10.35;100.00
30182;BME280;16990;49.056;9.240;2022-11-14T12:40:00;98536.13;;;10.54;100.00
30182;BME280;16990;49.056;9.240;2022-11-14T12:42:28;98545.06;;;10.48;100.00
30182;BME280;16990;49.056;9.240;2022-11-14T12:44:57;98547.63;;;10.55;100.00
30182;BME280;16990;49.056;9.240;2022-11-14T12:47:24;98541.19;;;10.56;100.00
30182;BME280;16990;49.056;9.240;2022-11-14T12:50:04;98544.03;;;10.49;100.00
30182;BME280;16990;49.056;9.240;2022-11-14T12:52:49;98540.16;;;10.57;100.00
30182;BME280;16990;49.056;9.240;2022-11-14T12:55:58;98544.47;;;10.58;100.00
30182;BME280;16990;49.056;9.240;2022-11-14T12:58:48;98547.28;;;10.51;100.00
30182;BME280;16990;49.056;9.240;2022-11-14T13:01:44;98533.81;;;10.46;100.00
30182;BME280;16990;49.056;9.240;2022-11-14T13:04:23;98535.94;;;10.44;100.00
30182;BME280;16990;49.056;9.240;2022-11-14T13:07:02;98537.94;;;10.66;100.00
30182;BME280;16990;49.056;9.240;2022-11-14T13:09:38;98529.53;;;10.74;100.00
30182;BME280;16990;49.056;9.240;2022-11-14T13:12:34;98518.38;;;10.94;100.00
30182;BME280;16990;49.056;9.240;2022-11-14T13:15:28;98519.94;;;11.06;100.00
30182;BME280;16990;49.056;9.240;2022-11-14T13:18:23;98518.06;;;11.24;100.00
30182;BME280;16990;49.056;9.240;2022-11-14T13:21:18;98515.47;;;11.29;100.00
30182;BME280;16990;49.056;9.240;2022-11-14T13:24:03;98500.50;;;11.28;100.00